Time;durP1;ratioP1;P1;durP2;ratioP2;P2;SDS_P1;SDS_P2;PMS_P1;PMS_P2;Temp;Humidity;BMP_temperature;BMP_pressure;BME280_temperature;BME280_humidity;BME280_pressure;Samples;Min_cycle;Max_cycle;Signal;HPM_P1;HPM_P2
2023/09/18 00:05:25;;;;;;;7.30;2.78;;;;;;;27.40;35.66;96762.03;6127293;23;20088;-25
2023/09/18 00:21:17;;;;;;;9.32;2.83;;;;;;;27.21;35.79;96741.06;6126844;23;20105;-25
2023/09/18 00:34:29;;;;;;;7.90;2.47;;;;;;;27.44;34.69;96748.53;6127439;23;20028;-26
2023/09/18 00:50:21;;;;;;;9.18;2.95;;;;;;;27.06;35.49;96713.72;6125779;23;20033;-26
2023/09/18 01:06:16;;;;;;;4.72;2.60;;;;;;;26.81;36.74;96668.53;6126381;23;20085;-25
2023/09/18 01:35:36;;;;;;;9.30;3.67;;;;;;;27.08;39.12;96688.88;6126589;23;20337;-26
2023/09/18 01:38:03;;;;;;;7.55;3.83;;;;;;;26.89;39.61;96690.94;6126455;23;20416;-25
2023/09/18 01:50:33;;;;;;;7.10;3.65;;;;;;;27.11;39.68;96696.16;6125209;23;20029;-25
2023/09/18 02:06:25;;;;;;;7.60;3.97;;;;;;;26.80;42.10;96672.59;6126323;23;20017;-26
2023/09/18 02:22:17;;;;;;;9.20;4.20;;;;;;;26.88;42.38;96650.47;6125830;23;20024;-25
2023/09/18 02:52:20;;;;;;;7.00;4.38;;;;;;;26.94;44.11;96653.94;6124719;23;20079;-26
2023/09/18 02:54:45;;;;;;;10.25;4.55;;;;;;;26.75;45.44;96651.91;6125825;23;20434;-26
2023/09/18 03:07:16;;;;;;;9.75;4.72;;;;;;;26.82;45.17;96659.66;6125743;23;20042;-26
2023/09/18 03:23:09;;;;;;;8.05;4.70;;;;;;;26.99;44.64;96650.31;6125686;23;20064;-26
2023/09/18 03:36:37;;;;;;;12.27;5.35;;;;;;;26.76;45.71;96656.22;6125422;23;20012;-26
2023/09/18 03:39:04;;;;;;;7.80;4.70;;;;;;;26.74;45.51;96644.09;6125865;23;20001;-26
2023/09/18 03:52:00;;;;;;;8.40;5.20;;;;;;;26.91;44.50;96630.69;6124533;23;20392;-25
2023/09/18 04:07:52;;;;;;;9.35;5.20;;;;;;;26.99;44.74;96641.97;6096146;23;20330;-26
2023/09/18 04:24:09;;;;;;;7.43;4.68;;;;;;;26.97;45.24;96617.44;6097759;23;19920;-25
2023/09/18 04:37:21;;;;;;;8.63;4.10;;;;;;;26.96;43.84;96612.41;6098208;23;20017;-26
2023/09/18 04:53:14;;;;;;;9.38;3.97;;;;;;;27.02;41.75;96593.59;6113884;23;20405;-25
2023/09/18 05:09:07;;;;;;;10.23;4.30;;;;;;;27.04;41.60;96602.16;6126646;23;20064;-26
2023/09/18 05:24:59;;;;;;;12.05;5.47;;;;;;;27.11;42.63;96626.56;6126123;23;20105;-26
2023/09/18 05:37:58;;;;;;;9.57;4.28;;;;;;;27.00;40.71;96657.38;6126708;23;20069;-25
2023/09/18 05:53:51;;;;;;;7.03;3.58;;;;;;;26.94;40.16;96676.22;6124972;23;20459;-26
2023/09/18 06:09:43;;;;;;;9.90;3.45;;;;;;;26.73;40.62;96665.59;6126202;23;20013;-26
2023/09/18 06:25:37;;;;;;;8.27;3.63;;;;;;;27.00;40.35;96677.63;6126024;23;20028;-26
2023/09/18 06:38:42;;;;;;;9.98;3.72;;;;;;;26.76;40.34;96683.28;6125859;23;20016;-25
2023/09/18 06:41:08;;;;;;;8.48;2.92;;;;;;;26.77;40.67;96693.88;6125740;23;20002;-26
2023/09/18 06:53:54;;;;;;;9.55;3.80;;;;;;;26.87;40.19;96712.97;6124779;23;20025;-25
2023/09/18 07:09:47;;;;;;;8.27;3.65;;;;;;;26.83;40.21;96713.25;6096324;23;20013;-25
2023/09/18 07:25:39;;;;;;;7.57;3.78;;;;;;;27.00;38.46;96727.72;6096572;23;20021;-25
2023/09/18 07:54:59;;;;;;;6.95;3.25;;;;;;;27.20;38.03;96734.72;6110098;23;20025;-25
2023/09/18 08:10:52;;;;;;;5.38;2.80;;;;;;;27.35;38.71;96737.78;6127522;23;20044;-25
2023/09/18 08:26:44;;;;;;;8.85;2.95;;;;;;;27.51;39.06;96738.78;6127234;23;20139;-25
2023/09/18 08:29:09;;;;;;;4.82;2.72;;;;;;;27.32;38.40;96741.66;6127449;23;20002;-26
2023/09/18 08:41:43;;;;;;;7.57;2.97;;;;;;;27.66;37.05;96760.59;6126934;23;20013;-26
2023/09/18 09:12:53;;;;;;;3.70;2.17;;;;;;;27.68;34.16;96764.38;6127016;23;20077;-25
2023/09/18 09:25:40;;;;;;;4.65;2.65;;;;;;;27.70;33.19;96747.09;6126621;23;20091;-26
2023/09/18 09:41:33;;;;;;;6.57;2.75;;;;;;;27.77;32.82;96743.69;6126306;23;20396;-26
2023/09/18 09:43:59;;;;;;;5.32;2.63;;;;;;;27.82;33.57;96732.41;6126636;23;20317;-26
2023/09/18 09:46:27;;;;;;;5.55;2.38;;;;;;;27.82;33.13;96740.03;6126965;23;20061;-26
2023/09/18 09:56:02;;;;;;;4.93;1.95;;;;;;;27.56;32.85;96740.03;6125926;23;20073;-26
2023/09/18 10:12:20;;;;;;;5.18;2.63;;;;;;;27.81;33.25;96725.38;6096460;23;20021;-25
2023/09/18 10:28:15;;;;;;;3.90;2.00;;;;;;;27.96;33.46;96702.53;6096752;23;20017;-26
2023/09/18 10:41:32;;;;;;;5.07;2.45;;;;;;;27.79;34.22;96716.03;6096517;23;20069;-25
2023/09/18 10:57:24;;;;;;;4.95;2.53;;;;;;;27.89;33.80;96698.34;6112404;23;20025;-25
2023/09/18 11:13:28;;;;;;;10.32;2.40;;;;;;;27.97;32.84;96684.50;6125578;23;20031;-25
2023/09/18 11:43:16;;;;;;;4.85;2.38;;;;;;;28.01;34.33;96687.72;6127565;23;20069;-25
2023/09/18 11:59:10;;;;;;;6.13;2.65;;;;;;;28.13;34.78;96683.44;6126077;23;20478;-26
2023/09/18 12:12:36;;;;;;;5.95;2.80;;;;;;;28.20;34.90;96677.22;6127434;23;20339;-26
2023/09/18 12:28:29;;;;;;;4.90;2.85;;;;;;;28.09;35.40;96657.16;6126893;23;20084;-25
2023/09/18 12:44:23;;;;;;;7.88;2.90;;;;;;;28.04;35.35;96644.09;6126861;23;20069;-26
2023/09/18 13:15:04;;;;;;;6.90;2.80;;;;;;;28.05;35.25;96607.31;6126730;23;20343;-26
2023/09/18 13:30:45;;;;;;;6.00;2.70;;;;;;;28.29;35.28;96631.41;6126808;23;20519;-26
2023/09/18 13:43:42;;;;;;;5.88;2.42;;;;;;;28.33;35.27;96651.34;6126778;23;20399;-26
2023/09/18 13:59:34;;;;;;;7.38;2.53;;;;;;;28.29;36.03;96683.66;6125203;23;20347;-26
2023/09/18 14:15:29;;;;;;;3.63;2.55;;;;;;;28.13;37.89;96686.22;6126552;23;20087;-25
2023/09/18 14:31:22;;;;;;;4.18;2.47;;;;;;;28.21;38.76;96714.22;6126210;23;20434;-25
2023/09/18 14:44:24;;;;;;;10.13;3.40;;;;;;;28.29;39.57;96711.53;6125984;23;20020;-26
2023/09/18 15:00:16;;;;;;;8.82;3.10;;;;;;;28.28;43.01;96710.03;6124452;23;20032;-26
2023/09/18 15:16:33;;;;;;;12.80;4.22;;;;;;;27.90;48.92;96531.88;6125823;23;20045;-25
2023/09/18 15:29:54;;;;;;;9.25;3.83;;;;;;;27.67;50.19;96558.72;6126078;23;20072;-26
2023/09/18 15:45:47;;;;;;;7.22;4.03;;;;;;;27.93;50.01;96533.59;6125743;23;20108;-26
2023/09/18 16:01:39;;;;;;;7.97;3.97;;;;;;;27.86;50.94;96537.00;6124611;23;20053;-26
2023/09/18 16:17:32;;;;;;;9.93;4.10;;;;;;;28.10;47.85;96516.47;6127326;23;20414;-26
2023/09/18 16:30:34;;;;;;;9.48;3.80;;;;;;;27.94;46.06;96496.06;6127229;23;20030;-26
2023/09/18 16:33:00;;;;;;;7.10;3.35;;;;;;;28.09;46.07;96512.94;6127346;23;20012;-26
2023/09/18 16:35:25;;;;;;;7.63;3.97;;;;;;;27.92;47.73;96506.25;6127361;23;19998;-26
2023/09/18 17:01:22;;;;;;;4.65;3.08;;;;;;;28.13;45.25;96496.63;6125923;23;20028;-26
2023/09/18 17:03:51;;;;;;;5.97;3.38;;;;;;;28.24;45.24;96496.38;6126696;23;20018;-26
2023/09/18 17:16:21;;;;;;;8.82;3.90;;;;;;;28.12;45.18;96495.13;6126534;23;20013;-25
2023/09/18 17:32:13;;;;;;;7.97;3.75;;;;;;;27.87;46.88;96508.59;6126942;23;20013;-26
2023/09/18 17:48:08;;;;;;;14.48;8.00;;;;;;;27.81;46.87;96521.94;6126471;23;20017;-26
2023/09/18 18:18:48;;;;;;;9.20;4.40;;;;;;;27.73;48.19;96574.00;6126216;23;20511;-25
2023/09/18 18:31:59;;;;;;;7.35;4.30;;;;;;;27.86;48.19;96589.97;6126189;23;20349;-26
2023/09/18 18:47:53;;;;;;;7.30;4.18;;;;;;;27.77;47.51;96596.00;6125703;23;20093;-25
2023/09/18 19:03:46;;;;;;;7.97;4.72;;;;;;;27.56;47.27;96636.94;6124531;23;20060;-26
2023/09/18 19:19:38;;;;;;;10.35;4.65;;;;;;;27.63;47.51;96641.88;6125684;23;20020;-25
2023/09/18 19:32:40;;;;;;;7.60;5.43;;;;;;;27.37;50.44;96626.59;6125935;23;20030;-25
2023/09/18 19:35:07;;;;;;;11.88;5.55;;;;;;;27.34;50.90;96629.69;6125722;23;20002;-25
2023/09/18 19:48:09;;;;;;;13.30;7.40;;;;;;;27.42;52.03;96611.09;6127738;23;20017;-26
2023/09/18 20:04:02;;;;;;;12.13;6.47;;;;;;;27.38;52.60;96597.47;6125815;23;20045;-26
2023/09/18 20:19:53;;;;;;;14.18;7.22;;;;;;;27.25;54.20;96575.19;6127274;23;20093;-26
2023/09/18 20:35:45;;;;;;;10.95;6.57;;;;;;;27.23;55.34;96563.84;6126910;23;20017;-26
2023/09/18 20:48:34;;;;;;;13.30;6.07;;;;;;;27.32;53.15;96557.84;6126991;23;20111;-26
2023/09/18 21:04:26;;;;;;;10.38;5.22;;;;;;;27.36;49.27;96547.13;6125773;23;20033;-26
2023/09/18 21:20:18;;;;;;;7.63;3.63;;;;;;;27.29;46.13;96541.47;6126417;23;20033;-26
2023/09/18 21:49:21;;;;;;;7.93;3.05;;;;;;;27.35;41.27;96523.34;6126608;23;20377;-25
2023/09/18 22:05:14;;;;;;;7.72;2.88;;;;;;;27.27;39.94;96516.94;6124643;23;20109;-26
2023/09/18 22:21:09;;;;;;;5.68;2.60;;;;;;;27.24;40.50;96514.47;6126287;23;20393;-25
2023/09/18 22:51:06;;;;;;;8.43;3.05;;;;;;;27.12;43.21;96530.63;6126288;23;20117;-25
2023/09/18 23:21:15;;;;;;;7.72;3.05;;;;;;;27.14;43.41;96526.03;6125528;23;19957;-25
2023/09/18 23:37:08;;;;;;;6.22;2.85;;;;;;;27.18;43.50;96531.28;6125815;23;20021;-26
